Time;durP1;ratioP1;P1;durP2;ratioP2;P2;SDS_P1;SDS_P2;PMS_P1;PMS_P2;Temp;Humidity;BMP_temperature;BMP_pressure;BME280_temperature;BME280_humidity;BME280_pressure;Samples;Min_cycle;Max_cycle;Signal;HPM_P1;HPM_P2
2023/10/08 00:01:12;;;;;;;10.05;1.80;;;18.90;87.50;;;;;;5019725;28;20063;-66
2023/10/08 00:03:38;;;;;;;9.88;2.55;;;18.90;87.60;;;;;;5033305;28;20250;-72
2023/10/08 00:06:12;;;;;;;6.53;2.40;;;18.90;87.50;;;;;;5026356;28;20045;-66
2023/10/08 00:08:38;;;;;;;4.38;2.00;;;18.90;87.50;;;;;;5026752;28;20033;-66
2023/10/08 00:11:07;;;;;;;4.85;2.03;;;19.00;87.70;;;;;;5031965;28;21370;-66
2023/10/08 00:13:39;;;;;;;4.32;1.83;;;19.00;87.00;;;;;;5031699;28;20068;-64
2023/10/08 00:16:16;;;;;;;7.75;2.40;;;19.10;86.60;;;;;;5027037;28;20037;-67
2023/10/08 00:18:48;;;;;;;5.50;2.25;;;19.10;86.40;;;;;;5034040;28;20037;-65
2023/10/08 00:21:27;;;;;;;14.77;2.40;;;19.10;86.40;;;;;;5008277;28;20745;-65
2023/10/08 00:23:57;;;;;;;8.43;2.03;;;19.10;86.40;;;;;;5027292;28;20036;-64
2023/10/08 00:26:32;;;;;;;4.20;2.15;;;19.10;86.70;;;;;;5031983;28;20041;-65
2023/10/08 00:29:00;;;;;;;6.03;2.58;;;19.10;87.30;;;;;;5036704;28;20033;-66
2023/10/08 00:31:38;;;;;;;4.72;2.10;;;19.00;86.30;;;;;;5033297;28;20084;-66
2023/10/08 00:34:13;;;;;;;8.88;2.15;;;19.10;86.70;;;;;;5034663;28;20029;-65
2023/10/08 00:36:45;;;;;;;8.07;2.20;;;19.10;86.50;;;;;;5032128;28;20036;-64
2023/10/08 00:39:22;;;;;;;5.35;2.60;;;19.00;86.50;;;;;;5022007;28;20705;-65
2023/10/08 00:41:49;;;;;;;4.53;2.58;;;19.00;86.40;;;;;;5032324;28;20049;-65
2023/10/08 00:44:22;;;;;;;6.97;2.53;;;18.90;86.70;;;;;;5034590;28;20115;-65
2023/10/08 00:46:48;;;;;;;7.43;2.25;;;18.90;87.10;;;;;;5035845;28;20779;-68
2023/10/08 00:54:48;;;;;;;4.78;2.05;;;18.90;86.70;;;;;;5030354;28;20123;-65
2023/10/08 00:57:20;;;;;;;4.05;2.47;;;18.90;87.40;;;;;;5030045;28;21309;-66
2023/10/08 00:59:52;;;;;;;5.40;2.03;;;18.90;87.90;;;;;;5030721;28;20389;-65
2023/10/08 01:02:24;;;;;;;6.95;2.42;;;18.90;87.60;;;;;;5026875;28;20401;-64
2023/10/08 01:04:50;;;;;;;5.00;2.50;;;18.80;87.80;;;;;;5005850;28;20371;-65
2023/10/08 01:07:17;;;;;;;4.82;2.17;;;18.80;88.00;;;;;;5025577;28;20658;-65
2023/10/08 01:09:49;;;;;;;5.35;2.15;;;18.80;88.50;;;;;;5004764;28;20120;-65
2023/10/08 01:12:33;;;;;;;6.40;2.25;;;18.90;87.90;;;;;;5012446;28;20041;-66
2023/10/08 01:15:16;;;;;;;3.65;2.00;;;18.90;87.70;;;;;;5008198;28;20580;-66
2023/10/08 01:18:04;;;;;;;5.70;2.05;;;18.90;88.30;;;;;;5026029;28;20033;-71
2023/10/08 01:20:34;;;;;;;5.63;2.30;;;18.90;87.70;;;;;;5028811;28;20054;-65
2023/10/08 01:23:10;;;;;;;7.30;2.53;;;19.00;87.80;;;;;;5026837;28;20037;-65
2023/10/08 01:25:41;;;;;;;3.92;2.00;;;18.90;88.00;;;;;;5000730;28;20223;-66
2023/10/08 01:28:26;;;;;;;5.57;2.40;;;18.90;87.80;;;;;;5018454;28;20033;-65
2023/10/08 01:30:57;;;;;;;4.68;2.00;;;18.90;88.20;;;;;;5011442;28;20045;-65
2023/10/08 01:33:23;;;;;;;5.72;2.40;;;18.90;88.50;;;;;;5028498;28;20047;-65
2023/10/08 01:35:49;;;;;;;5.40;2.17;;;18.80;88.40;;;;;;5029848;28;20067;-70
2023/10/08 01:38:16;;;;;;;7.15;2.55;;;18.80;88.50;;;;;;5027414;28;20566;-71
2023/10/08 01:40:42;;;;;;;3.92;1.83;;;18.80;88.50;;;;;;5027456;28;20045;-70
2023/10/08 01:43:10;;;;;;;5.07;2.30;;;18.80;88.40;;;;;;5024036;28;20162;-79
2023/10/08 01:45:40;;;;;;;6.60;2.28;;;18.80;88.30;;;;;;5028656;28;20073;-78
2023/10/08 01:48:09;;;;;;;8.50;3.40;;;18.70;88.30;;;;;;5027454;28;20028;-73
2023/10/08 01:50:35;;;;;;;8.52;1.95;;;18.80;88.50;;;;;;5030375;28;20065;-71
2023/10/08 01:53:01;;;;;;;4.60;2.20;;;18.80;88.20;;;;;;5026836;28;20062;-70
2023/10/08 01:55:26;;;;;;;8.35;2.45;;;18.90;88.60;;;;;;5028273;28;20037;-70
2023/10/08 01:57:52;;;;;;;5.05;2.38;;;18.80;89.00;;;;;;5026981;28;20043;-72
2023/10/08 02:00:22;;;;;;;5.88;2.15;;;18.80;89.00;;;;;;4995227;28;20585;-71
2023/10/08 02:02:51;;;;;;;5.07;2.33;;;18.70;89.10;;;;;;5029754;28;20690;-72
2023/10/08 02:05:18;;;;;;;5.97;2.67;;;18.70;90.00;;;;;;5033686;28;20041;-74
2023/10/08 02:07:48;;;;;;;6.90;2.70;;;18.70;90.20;;;;;;5033800;28;20147;-75
2023/10/08 02:10:16;;;;;;;5.07;2.40;;;18.70;90.10;;;;;;5033916;28;20605;-71
2023/10/08 02:12:42;;;;;;;6.50;2.08;;;18.70;90.20;;;;;;5034649;28;20049;-70
2023/10/08 02:15:08;;;;;;;4.95;2.28;;;18.70;90.40;;;;;;5015680;28;20418;-70
2023/10/08 02:17:34;;;;;;;7.68;2.40;;;18.70;90.60;;;;;;5029864;28;20044;-71
2023/10/08 02:20:04;;;;;;;5.85;2.20;;;18.70;90.60;;;;;;5025065;28;20037;-69
2023/10/08 02:22:30;;;;;;;3.78;2.13;;;18.80;90.40;;;;;;5028434;28;21115;-69
2023/10/08 02:25:01;;;;;;;5.63;2.22;;;18.80;90.40;;;;;;5012303;28;20056;-69
2023/10/08 02:27:27;;;;;;;5.75;2.40;;;18.80;90.50;;;;;;5035877;28;20119;-71
2023/10/08 02:29:54;;;;;;;6.95;2.55;;;18.80;90.70;;;;;;5010783;28;20045;-72
2023/10/08 02:32:22;;;;;;;4.13;2.45;;;18.80;90.30;;;;;;5015625;28;20445;-73
2023/10/08 02:34:48;;;;;;;5.30;2.15;;;18.80;90.30;;;;;;5032290;28;20029;-75
2023/10/08 02:37:15;;;;;;;5.25;2.28;;;18.90;90.20;;;;;;5036186;28;20025;-71
2023/10/08 02:39:40;;;;;;;4.50;2.00;;;18.90;90.00;;;;;;5036647;28;20548;-71
2023/10/08 02:42:10;;;;;;;3.88;2.22;;;19.00;90.10;;;;;;5037363;28;20041;-70
2023/10/08 02:44:41;;;;;;;4.13;2.05;;;19.00;89.80;;;;;;5033694;28;20025;-70
2023/10/08 02:47:08;;;;;;;6.80;2.20;;;19.00;90.20;;;;;;5027106;28;20057;-71
2023/10/08 02:49:34;;;;;;;4.50;1.90;;;19.00;90.40;;;;;;5035983;28;20028;-66
2023/10/08 02:52:02;;;;;;;5.28;2.35;;;18.90;90.40;;;;;;5033453;28;20037;-71
2023/10/08 02:54:36;;;;;;;8.85;2.10;;;18.90;90.50;;;;;;5036877;28;20139;-80
2023/10/08 02:57:09;;;;;;;4.63;2.00;;;19.00;90.60;;;;;;5034905;28;20048;-71
2023/10/08 02:59:42;;;;;;;4.32;2.17;;;18.90;90.80;;;;;;5032830;28;20037;-71
2023/10/08 03:02:21;;;;;;;5.10;2.22;;;18.90;90.90;;;;;;5007092;28;20071;-70
2023/10/08 03:04:51;;;;;;;6.93;2.42;;;18.90;90.80;;;;;;5034640;28;20141;-70
2023/10/08 03:07:32;;;;;;;5.22;2.28;;;18.90;90.90;;;;;;5033807;28;20037;-64
2023/10/08 03:10:16;;;;;;;5.65;2.58;;;19.00;90.90;;;;;;5016007;28;20056;-65
2023/10/08 03:12:43;;;;;;;7.60;2.25;;;18.90;91.10;;;;;;5034884;28;20569;-65
2023/10/08 03:18:09;;;;;;;4.95;2.47;;;18.80;91.10;;;;;;4998162;28;20036;-65
2023/10/08 03:20:42;;;;;;;5.95;2.40;;;18.90;91.20;;;;;;5030380;28;20694;-65
2023/10/08 03:23:22;;;;;;;7.45;2.38;;;18.80;91.00;;;;;;5034060;28;20043;-64
2023/10/08 03:29:15;;;;;;;4.68;2.10;;;18.80;90.80;;;;;;4955257;28;20058;-63
2023/10/08 03:34:14;;;;;;;5.15;2.17;;;18.90;90.60;;;;;;4995653;28;20498;-63
2023/10/08 03:36:44;;;;;;;6.78;2.50;;;18.80;90.50;;;;;;5032759;28;20045;-64
2023/10/08 03:39:18;;;;;;;3.25;1.73;;;18.80;90.50;;;;;;5033206;28;20039;-64
2023/10/08 03:42:07;;;;;;;3.58;1.80;;;18.80;90.40;;;;;;5033135;28;20041;-65
2023/10/08 03:44:36;;;;;;;4.60;2.42;;;18.70;90.60;;;;;;5032696;28;20227;-63
2023/10/08 03:47:10;;;;;;;8.45;1.98;;;18.70;90.50;;;;;;5033082;28;20072;-63
2023/10/08 03:49:38;;;;;;;6.72;1.90;;;18.70;90.40;;;;;;5011094;28;20087;-63
2023/10/08 03:52:06;;;;;;;4.22;1.85;;;18.70;90.40;;;;;;5031879;28;20049;-63
2023/10/08 03:54:35;;;;;;;6.15;2.15;;;18.70;90.20;;;;;;5034769;28;20528;-64
2023/10/08 03:57:06;;;;;;;4.55;2.13;;;18.70;90.30;;;;;;5031213;28;20091;-64
2023/10/08 03:59:33;;;;;;;6.10;2.35;;;18.60;90.40;;;;;;5034093;28;20040;-64
2023/10/08 04:02:32;;;;;;;4.43;2.05;;;18.60;90.60;;;;;;5027022;28;20393;-65
2023/10/08 04:04:59;;;;;;;4.07;1.65;;;18.60;90.20;;;;;;5026508;28;20640;-70
2023/10/08 04:07:39;;;;;;;9.32;2.38;;;18.60;90.30;;;;;;5031947;28;20041;-70
2023/10/08 04:10:34;;;;;;;4.00;2.00;;;18.60;90.10;;;;;;5032969;28;20521;-71
2023/10/08 04:12:52;;;;;;;7.43;2.05;;;18.70;90.20;;;;;;5034921;28;20072;-70
2023/10/08 04:15:19;;;;;;;5.95;2.25;;;18.60;90.20;;;;;;5026131;28;20033;-70
2023/10/08 04:17:45;;;;;;;5.28;1.90;;;18.60;90.20;;;;;;5027521;28;20083;-70
2023/10/08 04:20:32;;;;;;;7.40;1.75;;;18.50;90.40;;;;;;5031848;28;20045;-70
2023/10/08 04:23:04;;;;;;;3.60;2.00;;;18.50;90.70;;;;;;5036349;28;20028;-70
2023/10/08 04:25:31;;;;;;;6.65;1.98;;;18.50;90.70;;;;;;5034868;28;20036;-70
2023/10/08 04:28:01;;;;;;;6.68;1.90;;;18.50;90.60;;;;;;5035339;28;20505;-70
2023/10/08 04:30:35;;;;;;;8.02;1.80;;;18.50;90.90;;;;;;5031875;28;20048;-70
2023/10/08 04:33:08;;;;;;;3.40;1.90;;;18.50;90.80;;;;;;5035016;28;20754;-69
2023/10/08 04:35:55;;;;;;;7.07;2.17;;;18.50;90.80;;;;;;5020540;28;20037;-70
2023/10/08 04:38:26;;;;;;;3.92;2.60;;;18.50;90.90;;;;;;5031573;28;20029;-70
2023/10/08 04:40:52;;;;;;;3.65;1.80;;;18.50;91.00;;;;;;5036080;28;20052;-70
2023/10/08 04:43:24;;;;;;;3.95;1.80;;;18.50;91.20;;;;;;5033095;28;20037;-70
2023/10/08 04:45:56;;;;;;;9.13;2.58;;;18.50;91.10;;;;;;5031003;28;20076;-70
2023/10/08 04:48:23;;;;;;;5.28;2.42;;;18.50;91.10;;;;;;5010966;28;21264;-70
2023/10/08 04:50:58;;;;;;;4.88;2.22;;;18.50;91.10;;;;;;5031752;28;20061;-70
2023/10/08 04:53:31;;;;;;;4.75;2.10;;;18.60;91.30;;;;;;5027682;28;20036;-71
2023/10/08 04:56:34;;;;;;;12.95;2.30;;;18.60;91.00;;;;;;5033318;28;20037;-69
2023/10/08 04:58:52;;;;;;;4.80;1.85;;;18.60;91.10;;;;;;5025940;28;20729;-68
2023/10/08 05:01:38;;;;;;;2.80;1.75;;;18.60;91.30;;;;;;5031397;28;20558;-68
2023/10/08 05:09:10;;;;;;;7.30;2.10;;;18.60;91.30;;;;;;5032332;28;20033;-68
2023/10/08 05:11:46;;;;;;;2.90;1.63;;;18.60;90.80;;;;;;5033968;28;20111;-69
2023/10/08 05:14:34;;;;;;;2.67;1.85;;;18.60;91.00;;;;;;5033257;28;20055;-70
2023/10/08 05:17:11;;;;;;;8.95;1.85;;;18.60;90.80;;;;;;5028924;28;20722;-69
2023/10/08 05:22:43;;;;;;;4.22;2.17;;;18.60;90.90;;;;;;5035019;28;20043;-64
2023/10/08 05:38:37;;;;;;;3.90;1.75;;;18.60;91.60;;;;;;5030626;28;20457;-64
2023/10/08 05:43:55;;;;;;;4.13;1.95;;;18.60;91.60;;;;;;5027913;28;20052;-64
2023/10/08 05:49:02;;;;;;;5.85;2.05;;;18.50;92.00;;;;;;5030800;28;20060;-65
2023/10/08 05:51:46;;;;;;;5.15;2.00;;;18.50;92.10;;;;;;5032961;28;20061;-65
2023/10/08 05:59:39;;;;;;;6.18;2.13;;;18.40;92.60;;;;;;5032406;28;20041;-71
2023/10/08 06:02:28;;;;;;;6.70;2.20;;;18.40;92.70;;;;;;5036714;28;20110;-69
2023/10/08 06:05:20;;;;;;;8.98;2.75;;;18.50;93.20;;;;;;5039419;28;20450;-72
2023/10/08 06:13:16;;;;;;;3.53;1.58;;;18.60;93.70;;;;;;5035179;28;20033;-71
2023/10/08 06:15:47;;;;;;;11.40;2.90;;;18.70;93.50;;;;;;5022886;28;20123;-71
2023/10/08 06:18:18;;;;;;;6.93;2.90;;;18.80;93.50;;;;;;5023869;28;20111;-71
2023/10/08 06:20:44;;;;;;;4.70;1.85;;;18.80;93.50;;;;;;5037585;28;20029;-73
2023/10/08 06:23:22;;;;;;;4.60;2.03;;;18.90;94.00;;;;;;5038385;28;20831;-71
2023/10/08 06:25:56;;;;;;;4.72;2.05;;;18.90;94.10;;;;;;5041699;28;20321;-71
2023/10/08 06:28:25;;;;;;;5.80;1.77;;;19.00;94.40;;;;;;5038384;28;20473;-72
2023/10/08 06:30:56;;;;;;;6.60;1.90;;;18.90;94.50;;;;;;5036964;28;20270;-72
2023/10/08 06:33:33;;;;;;;3.95;2.15;;;19.00;95.00;;;;;;5026371;28;20035;-78
2023/10/08 06:36:05;;;;;;;5.20;1.80;;;18.90;95.00;;;;;;5035067;28;20037;-73
2023/10/08 06:38:34;;;;;;;6.45;2.47;;;19.00;95.30;;;;;;5033149;28;20498;-71
2023/10/08 06:41:10;;;;;;;9.32;3.22;;;19.00;95.50;;;;;;5035982;28;20064;-72
2023/10/08 06:43:42;;;;;;;5.53;1.60;;;19.10;96.10;;;;;;5033906;28;20071;-72
2023/10/08 06:46:12;;;;;;;5.15;2.50;;;19.10;95.70;;;;;;5030785;28;20464;-72
2023/10/08 06:48:41;;;;;;;5.28;2.03;;;19.20;96.20;;;;;;5027516;28;20045;-66
2023/10/08 06:51:12;;;;;;;5.28;1.92;;;19.30;96.30;;;;;;5031361;28;20060;-66
2023/10/08 06:53:44;;;;;;;8.15;2.50;;;19.40;96.30;;;;;;5033999;28;20025;-67
2023/10/08 06:56:12;;;;;;;;;;;19.40;96.30;;;;;;5031737;28;20275;-65
2023/10/08 06:58:39;;;;;;;3.80;2.05;;;19.50;95.90;;;;;;5027275;28;19913;-71
2023/10/08 07:01:05;;;;;;;6.60;2.70;;;19.70;95.70;;;;;;5024123;28;20561;-67
2023/10/08 07:03:32;;;;;;;7.03;2.10;;;19.70;96.20;;;;;;5032529;28;20045;-65
2023/10/08 07:05:59;;;;;;;3.72;2.08;;;19.70;95.70;;;;;;5013932;28;20609;-65
2023/10/08 07:08:31;;;;;;;6.25;1.98;;;19.60;96.10;;;;;;5034399;28;20037;-64
2023/10/08 07:11:04;;;;;;;18.00;2.50;;;19.60;96.20;;;;;;5033367;28;20080;-66
2023/10/08 07:13:30;;;;;;;7.20;2.13;;;19.80;96.50;;;;;;5027688;28;20082;-64
2023/10/08 07:15:57;;;;;;;8.13;2.22;;;19.90;96.80;;;;;;5031228;28;20569;-64
2023/10/08 07:18:26;;;;;;;5.22;2.20;;;19.90;96.20;;;;;;5029249;28;20027;-65
2023/10/08 07:21:00;;;;;;;8.55;2.30;;;20.00;96.10;;;;;;5024362;28;20048;-65
2023/10/08 07:23:33;;;;;;;5.13;2.13;;;20.10;96.50;;;;;;5014675;28;20112;-66
2023/10/08 07:26:17;;;;;;;8.52;2.28;;;20.10;96.30;;;;;;5012277;28;20040;-65
2023/10/08 07:28:45;;;;;;;4.38;2.35;;;20.00;96.20;;;;;;5030821;28;20512;-64
2023/10/08 07:31:20;;;;;;;4.88;2.13;;;19.70;96.60;;;;;;5030391;28;20051;-64
2023/10/08 07:36:35;;;;;;;3.95;1.83;;;19.60;97.20;;;;;;5026751;28;20082;-64
2023/10/08 07:39:07;;;;;;;4.95;1.90;;;19.50;97.50;;;;;;5031403;28;20478;-64
2023/10/08 07:41:33;;;;;;;9.77;2.40;;;19.40;97.60;;;;;;5033102;28;20427;-64
2023/10/08 07:44:00;;;;;;;3.33;2.10;;;19.40;98.00;;;;;;5033552;28;20033;-76
2023/10/08 07:46:26;;;;;;;4.20;2.65;;;19.40;98.00;;;;;;5018157;28;20132;-64
2023/10/08 07:48:55;;;;;;;5.50;2.40;;;19.60;98.70;;;;;;5030993;28;20026;-63
2023/10/08 07:51:24;;;;;;;4.63;2.00;;;19.70;97.90;;;;;;5022848;28;20048;-65
2023/10/08 07:53:55;;;;;;;5.03;2.15;;;19.90;97.80;;;;;;5030017;28;20033;-64
2023/10/08 07:56:24;;;;;;;5.35;2.00;;;20.00;97.40;;;;;;5031590;28;20150;-65
2023/10/08 07:58:51;;;;;;;5.05;1.75;;;20.10;97.60;;;;;;5034079;28;20041;-63
2023/10/08 08:01:17;;;;;;;6.40;1.83;;;20.10;98.00;;;;;;5033837;28;20470;-64
2023/10/08 08:03:44;;;;;;;4.85;2.33;;;20.00;97.50;;;;;;5031063;28;20029;-73
2023/10/08 08:06:10;;;;;;;5.60;2.38;;;20.10;98.30;;;;;;5025394;28;20041;-73
2023/10/08 08:08:37;;;;;;;4.55;1.90;;;20.10;98.30;;;;;;5030569;28;20044;-74
2023/10/08 08:11:11;;;;;;;4.90;2.20;;;20.20;97.70;;;;;;5031415;28;20049;-73
2023/10/08 08:13:38;;;;;;;4.68;2.33;;;20.20;98.00;;;;;;5023208;28;20140;-73
2023/10/08 08:16:17;;;;;;;12.02;2.38;;;20.20;98.10;;;;;;5024463;28;20672;-74
2023/10/08 08:18:48;;;;;;;2.80;1.85;;;20.20;98.60;;;;;;5024076;28;20033;-76
2023/10/08 08:21:15;;;;;;;5.40;2.38;;;20.10;98.20;;;;;;5014504;28;20531;-76
2023/10/08 08:23:49;;;;;;;9.70;2.42;;;20.10;98.90;;;;;;5032368;28;20041;-74
2023/10/08 08:26:29;;;;;;;5.80;2.30;;;20.10;99.00;;;;;;5030857;28;20036;-75
2023/10/08 08:29:01;;;;;;;6.40;2.25;;;20.10;99.20;;;;;;5023812;28;20037;-74
2023/10/08 08:31:31;;;;;;;6.97;2.83;;;20.10;99.20;;;;;;5036389;28;20037;-75
2023/10/08 08:34:02;;;;;;;6.47;2.38;;;20.10;99.50;;;;;;5010373;28;20112;-74
2023/10/08 08:36:30;;;;;;;6.13;2.22;;;20.10;99.60;;;;;;5030450;28;20171;-75
2023/10/08 08:38:56;;;;;;;5.35;1.90;;;20.10;99.90;;;;;;5032260;28;20033;-75
2023/10/08 08:41:23;;;;;;;5.90;2.08;;;20.00;99.90;;;;;;5038266;28;20041;-77
2023/10/08 08:43:58;;;;;;;5.90;1.95;;;20.00;99.90;;;;;;5034357;28;20378;-76
2023/10/08 08:46:36;;;;;;;7.53;1.92;;;20.00;99.90;;;;;;5033695;28;20056;-76
2023/10/08 08:49:11;;;;;;;3.95;1.75;;;20.00;99.90;;;;;;5018322;28;20033;-75
2023/10/08 08:51:38;;;;;;;7.63;2.15;;;19.90;99.90;;;;;;5035787;28;20643;-76
2023/10/08 08:54:08;;;;;;;5.15;2.40;;;19.90;99.90;;;;;;5036385;28;20126;-76
2023/10/08 08:56:36;;;;;;;6.88;2.03;;;19.90;99.90;;;;;;5035727;28;22040;-65
2023/10/08 08:59:04;;;;;;;6.85;1.80;;;19.80;99.90;;;;;;5031698;28;20131;-65
2023/10/08 09:01:32;;;;;;;5.32;2.50;;;19.80;99.90;;;;;;5029270;28;20035;-65
2023/10/08 09:04:05;;;;;;;6.45;1.83;;;19.80;99.90;;;;;;5021018;28;20136;-66
2023/10/08 09:06:33;;;;;;;5.88;2.17;;;19.70;99.90;;;;;;5031063;28;20506;-66
2023/10/08 09:09:23;;;;;;;3.00;1.25;;;19.70;99.90;;;;;;5013520;28;20045;-66
2023/10/08 09:11:53;;;;;;;2.10;0.43;;;19.40;99.90;;;;;;5027852;28;20106;-66
2023/10/08 09:14:25;;;;;;;0.45;0.45;;;18.90;99.90;;;;;;5038110;28;20470;-66
2023/10/08 09:16:51;;;;;;;0.17;0.15;;;18.60;99.90;;;;;;5030174;28;20032;-75
2023/10/08 09:19:22;;;;;;;1.20;0.30;;;18.20;99.90;;;;;;5028089;28;20057;-74
2023/10/08 09:22:02;;;;;;;2.42;0.38;;;18.00;99.90;;;;;;5032271;28;20037;-74
2023/10/08 09:24:28;;;;;;;2.40;0.20;;;17.80;99.90;;;;;;5035501;28;20734;-74
2023/10/08 09:26:55;;;;;;;2.28;0.90;;;17.70;99.90;;;;;;5032385;28;20117;-74
2023/10/08 09:29:25;;;;;;;1.52;1.42;;;17.70;99.90;;;;;;5018220;28;20040;-74
2023/10/08 09:31:56;;;;;;;4.18;0.20;;;17.70;99.90;;;;;;5034363;28;20517;-73
2023/10/08 09:34:26;;;;;;;2.40;0.82;;;17.80;99.90;;;;;;5033196;28;20520;-74
2023/10/08 09:36:53;;;;;;;0.32;0.10;;;17.80;99.90;;;;;;5011782;28;20513;-64
2023/10/08 09:39:30;;;;;;;3.38;0.25;;;17.90;99.90;;;;;;5021483;28;20025;-64
2023/10/08 09:41:57;;;;;;;0.20;0.10;;;17.90;99.90;;;;;;5018923;28;20052;-65
2023/10/08 09:44:24;;;;;;;0.82;0.10;;;18.00;99.90;;;;;;5016357;28;20131;-65
2023/10/08 09:47:05;;;;;;;0.38;0.10;;;17.90;99.90;;;;;;5032294;28;20075;-65
2023/10/08 09:49:56;;;;;;;0.17;0.10;;;18.00;99.90;;;;;;5030297;28;20041;-65
2023/10/08 09:52:33;;;;;;;0.03;0.00;;;18.10;99.90;;;;;;5016786;28;20720;-65
2023/10/08 09:55:12;;;;;;;0.28;0.00;;;18.20;99.90;;;;;;5036748;28;20029;-75
2023/10/08 09:57:37;;;;;;;0.10;0.10;;;18.30;99.90;;;;;;5029211;28;20073;-75
2023/10/08 10:00:14;;;;;;;0.03;0.00;;;18.30;99.90;;;;;;5017202;28;20485;-75
2023/10/08 10:02:42;;;;;;;0.15;0.00;;;18.30;99.90;;;;;;5029654;28;20052;-73
2023/10/08 10:05:11;;;;;;;1.08;0.00;;;18.40;99.90;;;;;;5027605;28;20033;-74
2023/10/08 10:07:41;;;;;;;0.57;0.10;;;18.50;99.90;;;;;;5030129;28;20745;-74
2023/10/08 10:10:31;;;;;;;0.00;0.00;;;18.50;99.90;;;;;;5023997;28;20495;-74
2023/10/08 10:13:02;;;;;;;6.93;0.20;;;18.50;99.90;;;;;;5033343;28;20127;-75
2023/10/08 10:15:31;;;;;;;0.05;0.00;;;18.60;99.90;;;;;;5025982;28;20610;-74
2023/10/08 10:18:10;;;;;;;0.45;0.00;;;18.60;99.90;;;;;;5026964;28;20036;-74
2023/10/08 10:20:40;;;;;;;0.00;0.00;;;18.60;99.90;;;;;;5021865;28;20032;-75
2023/10/08 10:23:50;;;;;;;0.00;0.00;;;18.60;99.90;;;;;;5026040;28;20454;-75
2023/10/08 10:26:30;;;;;;;1.55;0.00;;;18.60;99.70;;;;;;5016643;28;20037;-74
2023/10/08 10:29:10;;;;;;;0.55;0.08;;;18.50;99.70;;;;;;5028283;28;20047;-75
2023/10/08 10:31:44;;;;;;;0.35;0.10;;;18.50;99.80;;;;;;5030798;28;20036;-75
2023/10/08 10:34:12;;;;;;;7.03;0.05;;;18.40;99.70;;;;;;5032598;28;20444;-75
2023/10/08 10:36:39;;;;;;;1.38;0.00;;;18.30;99.90;;;;;;5031285;28;20037;-75
2023/10/08 10:39:16;;;;;;;0.00;0.00;;;18.30;99.90;;;;;;5026917;28;20234;-75
2023/10/08 10:41:46;;;;;;;0.00;0.00;;;18.30;99.90;;;;;;5033806;28;20112;-76
2023/10/08 10:44:15;;;;;;;0.47;0.10;;;18.20;99.70;;;;;;5031633;28;20111;-76
2023/10/08 10:46:51;;;;;;;0.15;0.10;;;18.10;99.80;;;;;;5035965;28;20045;-75
2023/10/08 10:49:36;;;;;;;0.20;0.00;;;18.10;99.40;;;;;;5030526;28;20048;-74
2023/10/08 10:52:05;;;;;;;1.35;0.10;;;17.90;99.50;;;;;;5035291;28;20128;-74
2023/10/08 10:54:36;;;;;;;4.47;0.45;;;17.80;99.70;;;;;;5026675;28;20429;-75
2023/10/08 10:57:08;;;;;;;0.00;0.00;;;17.80;99.60;;;;;;5006879;28;20879;-76
2023/10/08 10:59:39;;;;;;;1.77;0.10;;;17.70;99.60;;;;;;5030712;28;20040;-75
2023/10/08 11:02:20;;;;;;;0.00;0.00;;;17.60;99.90;;;;;;5038223;28;20512;-74
2023/10/08 11:04:51;;;;;;;0.00;0.00;;;17.50;99.90;;;;;;5031830;28;20989;-74
2023/10/08 11:07:20;;;;;;;1.42;0.13;;;17.50;99.90;;;;;;5033244;28;20135;-74
2023/10/08 11:09:51;;;;;;;0.20;0.20;;;17.50;99.90;;;;;;5034450;28;20041;-74
2023/10/08 11:12:22;;;;;;;0.15;0.00;;;17.60;99.90;;;;;;5026719;28;20397;-74
2023/10/08 11:14:51;;;;;;;0.08;0.00;;;17.60;99.90;;;;;;5013802;28;20040;-74
2023/10/08 11:17:24;;;;;;;6.20;0.30;;;17.60;99.90;;;;;;5037845;28;20017;-74
2023/10/08 11:19:50;;;;;;;0.57;0.20;;;17.60;99.90;;;;;;5034014;28;20103;-75
2023/10/08 11:22:18;;;;;;;0.00;0.00;;;17.60;99.90;;;;;;5039277;28;20103;-74
2023/10/08 11:24:47;;;;;;;0.10;0.10;;;17.60;99.90;;;;;;5029691;28;20128;-65
2023/10/08 11:27:15;;;;;;;0.80;0.10;;;17.50;99.90;;;;;;5029142;28;20041;-74
2023/10/08 11:29:56;;;;;;;0.20;0.13;;;17.60;99.90;;;;;;5031356;28;20152;-74
2023/10/08 11:32:25;;;;;;;6.55;0.45;;;17.60;99.90;;;;;;5030787;28;20183;-74
2023/10/08 11:34:55;;;;;;;6.68;1.65;;;17.60;99.90;;;;;;5031029;28;20034;-75
2023/10/08 11:37:35;;;;;;;8.10;1.33;;;17.50;99.90;;;;;;5028721;28;20153;-67
2023/10/08 11:40:28;;;;;;;0.00;0.00;;;17.50;99.90;;;;;;5027084;28;20508;-67
2023/10/08 11:42:51;;;;;;;4.35;0.40;;;17.50;99.90;;;;;;5032943;28;20558;-67
2023/10/08 11:45:23;;;;;;;2.25;0.10;;;17.50;99.90;;;;;;5032523;28;20197;-66
2023/10/08 11:48:03;;;;;;;1.98;0.25;;;17.60;99.90;;;;;;5025639;28;20100;-67
2023/10/08 11:50:31;;;;;;;0.70;0.22;;;17.70;99.90;;;;;;5034973;28;20048;-66
2023/10/08 11:53:02;;;;;;;2.97;0.90;;;17.80;99.90;;;;;;5031477;28;20037;-66
2023/10/08 11:55:29;;;;;;;0.15;0.15;;;17.70;99.90;;;;;;4987754;28;20592;-67
2023/10/08 11:57:55;;;;;;;0.00;0.00;;;17.70;99.30;;;;;;5018819;28;20616;-66
2023/10/08 12:00:25;;;;;;;0.52;0.28;;;17.60;98.00;;;;;;5029534;28;20038;-66
2023/10/08 12:02:54;;;;;;;0.22;0.20;;;17.50;98.10;;;;;;5025499;28;20044;-67
2023/10/08 12:05:26;;;;;;;1.58;0.20;;;17.50;97.80;;;;;;5015194;28;20098;-70
2023/10/08 12:07:52;;;;;;;;;;;17.40;98.40;;;;;;5021096;28;20037;-70
2023/10/08 12:10:22;;;;;;;1.05;0.30;;;17.40;98.50;;;;;;5023364;28;20333;-71
2023/10/08 12:12:55;;;;;;;1.10;0.10;;;17.30;97.90;;;;;;5027709;28;20117;-72
2023/10/08 12:15:22;;;;;;;0.47;0.22;;;17.30;97.70;;;;;;5010033;28;20098;-71
2023/10/08 12:20:34;;;;;;;0.60;0.10;;;17.30;97.50;;;;;;5002362;28;20176;-72
2023/10/08 12:23:00;;;;;;;0.60;0.05;;;17.20;97.50;;;;;;5023387;28;20047;-72
2023/10/08 12:25:26;;;;;;;0.35;0.10;;;17.10;97.30;;;;;;5021059;28;20029;-81
2023/10/08 12:27:52;;;;;;;0.10;0.08;;;17.10;97.30;;;;;;5028852;28;20609;-77
2023/10/08 12:30:17;;;;;;;0.00;0.00;;;17.10;97.50;;;;;;5022519;28;20552;-80
2023/10/08 12:32:46;;;;;;;0.22;0.20;;;17.00;97.80;;;;;;5031737;28;20043;-79
2023/10/08 12:35:15;;;;;;;0.65;0.08;;;17.00;97.30;;;;;;5000525;28;20045;-76
2023/10/08 12:37:44;;;;;;;0.10;0.00;;;17.00;96.90;;;;;;5029761;28;20044;-77
2023/10/08 12:40:22;;;;;;;0.05;0.03;;;16.90;97.50;;;;;;5034579;28;20041;-79
2023/10/08 12:42:50;;;;;;;0.00;0.00;;;16.80;97.60;;;;;;5030533;28;20033;-79
2023/10/08 12:45:20;;;;;;;0.55;0.10;;;16.90;97.50;;;;;;5032416;28;20037;-80
2023/10/08 12:47:47;;;;;;;0.13;0.10;;;16.90;97.60;;;;;;5032031;28;20032;-73
2023/10/08 12:50:15;;;;;;;0.28;0.10;;;16.90;97.40;;;;;;5030272;28;20132;-71
2023/10/08 12:52:52;;;;;;;0.20;0.10;;;17.00;97.40;;;;;;5027823;28;20309;-72
2023/10/08 12:55:23;;;;;;;0.20;0.10;;;17.00;96.50;;;;;;5015445;28;20134;-73
2023/10/08 12:57:55;;;;;;;0.23;0.10;;;16.90;95.20;;;;;;5028494;28;20230;-71
2023/10/08 13:00:23;;;;;;;0.38;0.38;;;16.90;94.30;;;;;;5016774;28;20459;-71
2023/10/08 13:02:53;;;;;;;0.20;0.17;;;16.90;93.70;;;;;;5011089;28;20186;-70
2023/10/08 13:05:29;;;;;;;2.58;0.17;;;16.80;93.60;;;;;;5033323;28;20306;-70
2023/10/08 13:07:55;;;;;;;0.82;0.30;;;16.70;93.60;;;;;;5032409;28;20528;-70
2023/10/08 13:10:26;;;;;;;1.33;0.20;;;16.70;93.50;;;;;;5026903;28;20057;-70
2023/10/08 13:12:52;;;;;;;1.90;0.30;;;16.60;93.80;;;;;;5034368;28;20103;-70
2023/10/08 13:15:18;;;;;;;0.60;0.30;;;16.60;93.60;;;;;;5034045;28;20127;-73
2023/10/08 13:17:45;;;;;;;0.65;0.40;;;16.60;93.00;;;;;;5033183;28;20033;-74
2023/10/08 13:20:17;;;;;;;0.60;0.20;;;16.50;92.80;;;;;;5029981;28;20041;-73
2023/10/08 13:22:43;;;;;;;3.38;0.40;;;16.40;93.40;;;;;;5026607;28;20029;-71
2023/10/08 13:25:11;;;;;;;1.85;0.40;;;16.40;93.50;;;;;;5025959;28;20039;-70
2023/10/08 13:27:39;;;;;;;0.38;0.35;;;16.40;93.50;;;;;;5031206;28;20274;-75
2023/10/08 13:30:09;;;;;;;2.17;0.40;;;16.40;93.10;;;;;;5011818;28;20502;-77
2023/10/08 13:32:36;;;;;;;6.05;0.40;;;16.20;93.30;;;;;;5033095;28;20482;-80
2023/10/08 13:35:05;;;;;;;4.82;0.50;;;16.10;94.00;;;;;;5032907;28;20698;-66
2023/10/08 13:37:38;;;;;;;0.30;0.30;;;16.10;93.90;;;;;;5011277;28;20493;-66
2023/10/08 13:40:04;;;;;;;0.93;0.40;;;16.10;94.40;;;;;;5026543;28;20041;-68
2023/10/08 13:42:31;;;;;;;2.40;0.63;;;16.20;94.50;;;;;;5033600;28;20033;-66
2023/10/08 13:45:07;;;;;;;0.45;0.20;;;16.10;94.20;;;;;;5021969;28;20041;-66
2023/10/08 13:47:34;;;;;;;1.00;0.47;;;16.10;93.70;;;;;;5029042;28;20041;-66
2023/10/08 13:50:02;;;;;;;0.52;0.40;;;16.20;93.20;;;;;;5027761;28;20149;-64
2023/10/08 13:52:29;;;;;;;22.42;1.20;;;16.10;92.60;;;;;;5015978;28;20482;-64
2023/10/08 13:54:55;;;;;;;0.95;0.70;;;16.10;92.70;;;;;;5026837;28;20037;-64
2023/10/08 13:57:23;;;;;;;8.43;1.00;;;16.00;92.50;;;;;;5010838;28;20045;-65
2023/10/08 13:59:50;;;;;;;2.67;0.73;;;16.00;92.90;;;;;;5017066;28;20044;-66
2023/10/08 14:02:21;;;;;;;0.93;0.57;;;16.00;92.80;;;;;;5035333;28;20049;-66
2023/10/08 14:04:50;;;;;;;1.10;0.75;;;15.90;92.50;;;;;;5027878;28;20033;-66
2023/10/08 14:07:19;;;;;;;1.20;0.70;;;15.90;92.60;;;;;;5031011;28;20041;-64